createdAt,value
2022-09-23T00:00:36.937Z,0.00
2022-09-23T00:01:37.011Z,0.00
2022-09-23T00:02:36.879Z,0.00
2022-09-23T00:03:36.827Z,0.00
2022-09-23T00:04:36.815Z,0.00
2022-09-23T00:05:37.183Z,0.00
2022-09-23T00:06:36.802Z,0.00
2022-09-23T00:07:36.812Z,0.00
2022-09-23T00:08:36.783Z,0.00
2022-09-23T00:09:36.766Z,0.00
2022-09-23T00:10:36.753Z,0.00
2022-09-23T00:11:36.746Z,0.00
2022-09-23T00:12:36.744Z,0.00
2022-09-23T00:13:36.733Z,0.00
2022-09-23T00:14:36.729Z,0.00
2022-09-23T00:15:36.727Z,0.00
2022-09-23T00:16:36.776Z,0.00
2022-09-23T00:17:36.695Z,0.00
2022-09-23T00:18:36.669Z,0.00
2022-09-23T00:19:36.666Z,0.00
2022-09-23T00:20:36.646Z,0.00
2022-09-23T00:21:36.634Z,0.00
2022-09-23T00:22:36.628Z,0.00
2022-09-23T00:23:36.623Z,0.00
2022-09-23T00:24:36.605Z,0.00
2022-09-23T00:25:36.607Z,0.00
2022-09-23T00:26:36.584Z,0.00
2022-09-23T00:27:36.569Z,0.00
2022-09-23T00:28:36.560Z,0.00
2022-09-23T00:29:36.550Z,0.00
2022-09-23T00:30:36.582Z,0.00
2022-09-23T00:31:36.544Z,0.00
2022-09-23T00:32:36.521Z,0.00
2022-09-23T00:33:36.513Z,0.00
2022-09-23T00:34:36.515Z,0.00
2022-09-23T00:35:36.493Z,0.00
2022-09-23T00:36:36.525Z,0.00
2022-09-23T00:37:36.460Z,0.00
2022-09-23T00:38:36.453Z,0.00
2022-09-23T00:39:36.447Z,0.00
2022-09-23T00:40:36.499Z,0.00
2022-09-23T00:41:36.428Z,0.00
2022-09-23T00:42:36.402Z,0.00
2022-09-23T00:43:36.417Z,0.00
2022-09-23T00:44:36.403Z,0.00
2022-09-23T00:45:36.421Z,0.00
2022-09-23T00:46:36.376Z,0.00
2022-09-23T00:47:36.369Z,0.00
2022-09-23T00:48:36.353Z,0.00
2022-09-23T00:49:36.342Z,0.00
2022-09-23T00:50:36.331Z,0.00
2022-09-23T00:51:36.369Z,0.00
2022-09-23T00:52:36.303Z,0.00
2022-09-23T00:53:36.305Z,0.00
2022-09-23T00:54:36.278Z,0.00
2022-09-23T00:55:36.275Z,0.00
2022-09-23T00:56:36.266Z,0.00
2022-09-23T00:57:36.253Z,0.00
2022-09-23T00:58:36.228Z,0.00
2022-09-23T00:59:36.237Z,0.00
2022-09-23T01:00:36.236Z,0.00
2022-09-23T01:01:36.340Z,0.00
2022-09-23T01:02:36.211Z,0.00
2022-09-23T01:03:36.184Z,0.00
2022-09-23T01:04:36.181Z,0.00
2022-09-23T01:05:36.171Z,0.00
2022-09-23T01:06:36.163Z,0.00
2022-09-23T01:07:36.360Z,0.00
2022-09-23T01:08:36.133Z,0.00
2022-09-23T01:09:36.126Z,0.00
2022-09-23T01:10:36.106Z,0.00
2022-09-23T01:11:36.127Z,0.00
2022-09-23T01:12:36.093Z,0.00
2022-09-23T01:13:36.081Z,0.00
2022-09-23T01:14:36.072Z,0.00
2022-09-23T01:15:36.058Z,0.00
2022-09-23T01:16:36.076Z,0.00
2022-09-23T01:17:36.332Z,0.00
2022-09-23T01:18:36.030Z,0.00
2022-09-23T01:19:36.026Z,0.00
2022-09-23T01:20:35.999Z,0.00
2022-09-23T01:21:35.989Z,0.00
2022-09-23T01:22:35.975Z,0.00
2022-09-23T01:23:35.976Z,0.00
2022-09-23T01:24:35.957Z,0.00
2022-09-23T01:25:35.949Z,0.00
2022-09-23T01:26:35.939Z,0.00
2022-09-23T01:27:35.926Z,0.00
2022-09-23T01:28:35.917Z,0.00
2022-09-23T01:29:35.908Z,0.00
2022-09-23T01:30:35.942Z,0.00
2022-09-23T01:31:35.891Z,0.00
2022-09-23T01:32:35.870Z,0.00
2022-09-23T01:33:35.861Z,0.00
2022-09-23T01:34:35.847Z,0.00
2022-09-23T01:35:35.839Z,0.00
2022-09-23T01:36:35.837Z,0.00
2022-09-23T01:37:35.821Z,0.00
2022-09-23T01:38:35.812Z,0.00
2022-09-23T01:39:35.810Z,0.00
2022-09-23T01:40:35.892Z,0.00
2022-09-23T01:41:35.786Z,0.00
2022-09-23T01:42:35.768Z,0.00
2022-09-23T01:43:35.769Z,0.00
2022-09-23T01:44:35.759Z,0.00
2022-09-23T01:45:35.740Z,0.00
2022-09-23T01:46:35.726Z,0.00
2022-09-23T01:47:35.722Z,0.00
2022-09-23T01:48:35.799Z,0.00
2022-09-23T01:49:35.693Z,0.00
2022-09-23T01:50:35.706Z,0.00
2022-09-23T01:51:35.687Z,0.00
2022-09-23T01:52:35.648Z,0.00
2022-09-23T01:53:35.649Z,0.00
2022-09-23T01:54:35.640Z,0.00
2022-09-23T01:55:35.637Z,0.00
2022-09-23T01:56:35.607Z,0.00
2022-09-23T01:57:35.603Z,0.00
2022-09-23T01:58:35.590Z,0.00
2022-09-23T01:59:35.577Z,0.00
2022-09-23T02:00:35.578Z,0.00
2022-09-23T02:01:35.632Z,0.00
2022-09-23T02:02:35.584Z,0.00
2022-09-23T02:03:35.535Z,0.00
2022-09-23T02:04:35.531Z,0.00
2022-09-23T02:05:35.518Z,0.00
2022-09-23T02:06:35.514Z,0.00
2022-09-23T02:07:35.512Z,0.00
2022-09-23T02:08:36.547Z,0.00
2022-09-23T02:09:35.477Z,0.00
2022-09-23T02:10:35.468Z,0.00
2022-09-23T02:11:35.464Z,0.00
2022-09-23T02:12:35.440Z,0.00
2022-09-23T02:13:35.436Z,0.00
2022-09-23T02:14:35.437Z,0.00
2022-09-23T02:15:35.429Z,0.00
2022-09-23T02:16:35.424Z,0.00
2022-09-23T02:17:35.386Z,0.00
2022-09-23T02:18:35.376Z,0.00
2022-09-23T02:19:35.376Z,0.00
2022-09-23T02:20:35.368Z,0.00
2022-09-23T02:21:35.335Z,0.00
2022-09-23T02:22:35.513Z,0.00
2022-09-23T02:23:35.331Z,0.00
2022-09-23T02:24:35.319Z,0.00
2022-09-23T02:25:35.308Z,0.00
2022-09-23T02:26:35.305Z,0.00
2022-09-23T02:27:35.296Z,0.00
2022-09-23T02:28:35.273Z,0.00
2022-09-23T02:29:35.265Z,0.00
2022-09-23T02:30:35.255Z,0.00
2022-09-23T02:31:35.312Z,0.00
2022-09-23T02:32:35.232Z,0.00
2022-09-23T02:33:35.228Z,0.00
2022-09-23T02:34:35.204Z,0.00
2022-09-23T02:35:35.224Z,0.00
2022-09-23T02:36:35.187Z,0.00
2022-09-23T02:37:35.189Z,0.00
2022-09-23T02:38:35.163Z,0.00
2022-09-23T02:39:35.201Z,0.00
2022-09-23T02:40:35.235Z,0.00
2022-09-23T02:41:35.143Z,0.00
2022-09-23T02:42:35.123Z,0.00
2022-09-23T02:43:35.119Z,0.00
2022-09-23T02:44:35.109Z,0.00
2022-09-23T02:45:35.129Z,0.00
2022-09-23T02:46:35.082Z,0.00
2022-09-23T02:47:35.074Z,0.00
2022-09-23T02:48:35.065Z,0.00
2022-09-23T02:49:35.056Z,0.00
2022-09-23T02:50:35.052Z,0.00
2022-09-23T02:51:35.028Z,0.00
2022-09-23T02:52:35.025Z,0.00
2022-09-23T02:53:35.034Z,0.00
2022-09-23T02:54:35.012Z,0.00
2022-09-23T02:55:34.994Z,0.00
2022-09-23T02:56:35.029Z,0.00
2022-09-23T02:57:34.965Z,0.00
2022-09-23T02:58:34.961Z,0.00
2022-09-23T02:59:34.947Z,0.00
2022-09-23T03:00:34.933Z,0.00
2022-09-23T03:01:34.973Z,0.00
2022-09-23T03:02:34.938Z,0.00
2022-09-23T03:03:34.901Z,0.00
2022-09-23T03:04:34.887Z,0.00
2022-09-23T03:05:34.984Z,0.00
2022-09-23T03:06:34.864Z,0.00
2022-09-23T03:07:34.855Z,0.00
2022-09-23T03:08:34.852Z,0.00
2022-09-23T03:09:34.839Z,0.00
2022-09-23T03:10:35.010Z,0.00
2022-09-23T03:11:34.821Z,0.00
2022-09-23T03:12:34.801Z,0.00
2022-09-23T03:13:34.802Z,0.00
2022-09-23T03:14:34.783Z,0.00
2022-09-23T03:15:34.786Z,0.00
2022-09-23T03:16:34.804Z,0.00
2022-09-23T03:17:34.756Z,0.00
2022-09-23T03:18:34.760Z,0.00
2022-09-23T03:19:34.736Z,0.00
2022-09-23T03:20:34.716Z,0.00
2022-09-23T03:21:34.716Z,0.00
2022-09-23T03:22:34.704Z,0.00
2022-09-23T03:23:34.699Z,0.00
2022-09-23T03:24:34.674Z,0.00
2022-09-23T03:25:34.672Z,0.00
2022-09-23T03:26:34.659Z,0.00
2022-09-23T03:27:34.652Z,0.00
2022-09-23T03:28:34.639Z,0.00
2022-09-23T03:29:34.621Z,0.00
2022-09-23T03:30:34.728Z,0.00
2022-09-23T03:31:34.650Z,0.00
2022-09-23T03:32:34.578Z,0.00
2022-09-23T03:33:34.579Z,0.00
2022-09-23T03:34:34.959Z,0.00
2022-09-23T03:35:34.561Z,0.00
2022-09-23T03:36:34.558Z,0.00
2022-09-23T03:37:34.564Z,0.00
2022-09-23T03:38:34.525Z,0.00
2022-09-23T03:39:34.526Z,0.00
2022-09-23T03:40:34.596Z,0.00
2022-09-23T03:41:34.534Z,0.00
2022-09-23T03:42:34.480Z,0.00
2022-09-23T03:43:38.664Z,0.00
2022-09-23T03:44:34.462Z,0.00
2022-09-23T03:45:34.529Z,0.00
2022-09-23T03:46:34.444Z,0.00
2022-09-23T03:47:34.435Z,0.00
2022-09-23T03:48:34.432Z,0.00
2022-09-23T03:49:34.422Z,0.00
2022-09-23T03:50:34.403Z,0.00
2022-09-23T03:51:34.380Z,0.00
2022-09-23T03:52:34.378Z,0.00
2022-09-23T03:53:34.377Z,0.00
2022-09-23T03:54:34.363Z,0.00
2022-09-23T03:55:34.359Z,0.00
2022-09-23T03:56:34.335Z,0.00
2022-09-23T03:57:34.331Z,0.00
2022-09-23T03:58:34.312Z,0.00
2022-09-23T03:59:34.304Z,0.00
2022-09-23T04:00:34.339Z,0.00
2022-09-23T04:01:34.281Z,0.00
2022-09-23T04:02:34.321Z,0.00
2022-09-23T04:03:34.260Z,0.00
2022-09-23T04:04:34.250Z,0.00
2022-09-23T04:05:34.241Z,0.00
2022-09-23T04:06:34.237Z,0.00
2022-09-23T04:07:34.216Z,0.00
2022-09-23T04:08:34.211Z,0.00
2022-09-23T04:09:34.194Z,0.00
2022-09-23T04:10:34.206Z,0.00
2022-09-23T04:11:34.179Z,0.00
2022-09-23T04:12:34.361Z,0.00
2022-09-23T04:13:34.157Z,0.00
2022-09-23T04:14:34.150Z,0.00
2022-09-23T04:15:34.121Z,0.00
2022-09-23T04:16:34.143Z,0.00
2022-09-23T04:17:34.098Z,0.00
2022-09-23T04:18:34.100Z,0.00
2022-09-23T04:19:34.081Z,0.00
2022-09-23T04:20:34.098Z,0.00
2022-09-23T04:21:34.060Z,0.00
2022-09-23T04:22:34.068Z,0.00
2022-09-23T04:23:34.039Z,0.00
2022-09-23T04:24:34.032Z,0.00
2022-09-23T04:25:34.012Z,0.00
2022-09-23T04:26:34.018Z,0.00
2022-09-23T04:27:37.629Z,0.00
2022-09-23T04:28:33.995Z,0.00
2022-09-23T04:29:33.966Z,0.00
2022-09-23T04:30:33.967Z,0.00
2022-09-23T04:31:34.007Z,0.00
2022-09-23T04:32:33.945Z,0.00
2022-09-23T04:33:33.927Z,0.00
2022-09-23T04:34:33.927Z,0.00
2022-09-23T04:35:36.690Z,0.00
2022-09-23T04:36:35.361Z,0.00
2022-09-23T04:37:33.901Z,0.00
2022-09-23T04:38:33.887Z,0.00
2022-09-23T04:39:33.873Z,0.00
2022-09-23T04:40:34.034Z,0.00
2022-09-23T04:41:33.853Z,4.00
2022-09-23T04:42:33.856Z,4.00
2022-09-23T04:43:33.828Z,0.00
2022-09-23T04:44:33.819Z,4.00
2022-09-23T04:45:33.991Z,4.00
2022-09-23T04:46:33.843Z,4.00
2022-09-23T04:47:33.786Z,4.00
2022-09-23T04:48:33.773Z,4.00
2022-09-23T04:49:33.776Z,4.00
2022-09-23T04:50:33.817Z,8.00
2022-09-23T04:51:33.747Z,8.00
2022-09-23T04:52:33.747Z,8.00
2022-09-23T04:53:33.713Z,12.00
2022-09-23T04:54:33.710Z,12.00
2022-09-23T04:55:33.703Z,12.00
2022-09-23T04:56:33.701Z,16.00
2022-09-23T04:57:33.677Z,20.00
2022-09-23T04:58:33.686Z,24.00
2022-09-23T04:59:33.659Z,28.00
2022-09-23T05:00:33.676Z,32.00
2022-09-23T05:01:33.804Z,40.00
2022-09-23T05:02:33.673Z,48.00
2022-09-23T05:03:33.625Z,52.00
2022-09-23T05:04:33.610Z,64.00
2022-09-23T05:05:33.596Z,72.00
2022-09-23T05:06:33.598Z,88.00
2022-09-23T05:07:33.590Z,96.00
2022-09-23T05:08:33.570Z,112.00
2022-09-23T05:09:33.566Z,124.00
2022-09-23T05:10:33.554Z,140.00
2022-09-23T05:11:33.528Z,160.00
2022-09-23T05:12:33.535Z,180.00
2022-09-23T05:13:33.678Z,204.00
2022-09-23T05:14:33.506Z,224.00
2022-09-23T05:15:33.492Z,244.00
2022-09-23T05:16:33.524Z,264.00
2022-09-23T05:17:33.471Z,284.00
2022-09-23T05:18:33.464Z,304.00
2022-09-23T05:19:33.456Z,328.00
2022-09-23T05:20:33.459Z,348.00
2022-09-23T05:21:33.436Z,372.00
2022-09-23T05:22:33.420Z,392.00
2022-09-23T05:23:33.406Z,420.00
2022-09-23T05:24:33.439Z,444.00
2022-09-23T05:25:38.103Z,472.00
2022-09-23T05:26:34.372Z,500.00
2022-09-23T05:27:33.361Z,528.00
2022-09-23T05:28:33.361Z,560.00
2022-09-23T05:29:33.358Z,592.00
2022-09-23T05:30:33.349Z,616.00
2022-09-23T05:31:33.366Z,648.00
2022-09-23T05:32:33.316Z,672.00
2022-09-23T05:33:33.302Z,688.00
2022-09-23T05:34:33.297Z,712.00
2022-09-23T05:35:33.280Z,736.00
2022-09-23T05:36:37.877Z,768.00
2022-09-23T05:37:34.259Z,800.00
2022-09-23T05:38:33.258Z,836.00
2022-09-23T05:39:33.249Z,872.00
2022-09-23T05:40:33.333Z,908.00
2022-09-23T05:41:33.231Z,944.00
2022-09-23T05:42:33.213Z,968.00
2022-09-23T05:43:33.201Z,996.00
2022-09-23T05:44:33.211Z,1028.00
2022-09-23T05:45:33.171Z,1056.00
2022-09-23T05:46:33.286Z,1092.00
2022-09-23T05:47:33.157Z,1124.00
2022-09-23T05:48:33.148Z,1160.00
2022-09-23T05:49:55.173Z,1196.00
2022-09-23T05:50:34.120Z,1240.00
2022-09-23T05:51:33.117Z,1276.00
2022-09-23T05:52:33.099Z,1316.00
2022-09-23T05:53:33.089Z,1356.00
2022-09-23T05:54:33.085Z,1400.00
2022-09-23T05:55:33.070Z,1448.00
2022-09-23T05:56:33.073Z,1492.00
2022-09-23T05:57:33.053Z,1540.00
2022-09-23T05:58:33.040Z,1592.00
2022-09-23T05:59:33.026Z,1644.00
2022-09-23T06:00:33.007Z,1696.00
2022-09-23T06:01:33.055Z,1748.00
2022-09-23T06:02:33.008Z,1800.00
2022-09-23T06:03:32.981Z,1864.00
2022-09-23T06:04:32.982Z,1924.00
2022-09-23T06:05:32.981Z,1984.00
2022-09-23T06:06:32.954Z,2048.00
2022-09-23T06:07:32.935Z,2116.00
2022-09-23T06:08:32.935Z,2184.00
2022-09-23T06:09:36.366Z,2256.00
2022-09-23T06:10:32.929Z,2336.00
2022-09-23T06:11:32.904Z,2416.00
2022-09-23T06:12:32.902Z,2504.00
2022-09-23T06:13:32.882Z,2584.00
2022-09-23T06:14:32.862Z,2660.00
2022-09-23T06:15:33.105Z,2748.00
2022-09-23T06:16:32.939Z,2824.00
2022-09-23T06:17:32.836Z,2912.00
2022-09-23T06:18:32.821Z,3004.00
2022-09-23T06:19:32.818Z,3108.00
2022-09-23T06:20:32.830Z,3212.00
2022-09-23T06:21:32.790Z,3332.00
2022-09-23T06:22:35.443Z,3476.00
2022-09-23T06:23:32.803Z,3628.00
2022-09-23T06:24:32.980Z,3784.00
2022-09-23T06:25:32.756Z,3940.00
2022-09-23T06:26:32.756Z,4080.00
2022-09-23T06:27:32.721Z,4200.00
2022-09-23T06:28:32.723Z,4320.00
2022-09-23T06:29:32.715Z,4472.00
2022-09-23T06:30:32.712Z,4652.00
2022-09-23T06:31:32.766Z,4772.00
2022-09-23T06:32:32.667Z,4964.00
2022-09-23T06:33:36.996Z,5184.00
2022-09-23T06:34:42.471Z,5388.00
2022-09-23T06:35:33.638Z,5556.00
2022-09-23T06:36:42.228Z,5676.00
2022-09-23T06:37:33.626Z,5724.00
2022-09-23T06:38:32.614Z,5768.00
2022-09-23T06:39:32.660Z,5676.00
2022-09-23T06:40:32.695Z,5724.00
2022-09-23T06:41:32.585Z,5932.00
2022-09-23T06:42:32.589Z,6028.00
2022-09-23T06:43:32.554Z,6076.00
2022-09-23T06:44:32.541Z,5972.00
2022-09-23T06:45:32.532Z,5976.00
2022-09-23T06:46:32.636Z,6028.00
2022-09-23T06:47:32.510Z,5992.00
2022-09-23T06:48:32.511Z,6000.00
2022-09-23T06:49:32.500Z,6060.00
2022-09-23T06:50:32.488Z,5964.00
2022-09-23T06:51:32.479Z,5996.00
2022-09-23T06:52:32.486Z,5920.00
2022-09-23T06:53:32.466Z,5856.00
2022-09-23T06:54:32.452Z,6076.00
2022-09-23T06:55:32.453Z,6152.00
2022-09-23T06:56:37.774Z,6456.00
2022-09-23T06:57:33.433Z,6584.00
2022-09-23T06:58:32.426Z,6568.00
2022-09-23T06:59:32.393Z,6504.00
2022-09-23T07:00:32.398Z,6372.00
2022-09-23T07:01:32.438Z,6320.00
2022-09-23T07:02:32.455Z,6212.00
2022-09-23T07:03:32.348Z,6040.00
2022-09-23T07:04:32.323Z,5804.00
2022-09-23T07:05:32.322Z,5576.00
2022-09-23T07:06:32.321Z,5636.00
2022-09-23T07:07:32.313Z,5672.00
2022-09-23T07:08:32.297Z,5720.00
2022-09-23T07:09:32.301Z,5776.00
2022-09-23T07:10:32.265Z,5744.00
2022-09-23T07:11:32.262Z,5780.00
2022-09-23T07:12:32.484Z,5988.00
2022-09-23T07:13:32.243Z,6052.00
2022-09-23T07:14:32.230Z,6152.00
2022-09-23T07:15:32.270Z,6188.00
2022-09-23T07:16:32.211Z,6024.00
2022-09-23T07:17:32.717Z,5740.00
2022-09-23T07:18:36.412Z,5716.00
2022-09-23T07:19:32.321Z,5644.00
2022-09-23T07:20:32.163Z,5724.00
2022-09-23T07:21:32.157Z,5568.00
2022-09-23T07:22:32.767Z,5456.00
2022-09-23T07:23:32.140Z,5412.00
2022-09-23T07:24:32.145Z,5460.00
2022-09-23T07:25:32.101Z,5664.00
2022-09-23T07:26:32.123Z,5988.00
2022-09-23T07:27:32.104Z,6384.00
2022-09-23T07:28:32.080Z,6456.00
2022-09-23T07:29:42.561Z,6544.00
2022-09-23T07:30:33.084Z,6884.00
2022-09-23T07:31:38.577Z,6928.00
2022-09-23T07:32:43.772Z,6680.00
2022-09-23T07:33:33.662Z,6880.00
2022-09-23T07:34:32.060Z,6924.00
2022-09-23T07:35:32.011Z,6996.00
2022-09-23T07:36:31.989Z,6912.00
2022-09-23T07:37:31.979Z,7112.00
2022-09-23T07:38:31.991Z,7460.00
2022-09-23T07:39:31.969Z,7712.00
2022-09-23T07:40:32.050Z,7576.00
2022-09-23T07:41:31.954Z,7664.00
2022-09-23T07:42:31.946Z,7916.00
2022-09-23T07:43:31.916Z,8044.00
2022-09-23T07:44:31.932Z,8084.00
2022-09-23T07:45:31.899Z,7984.00
2022-09-23T07:46:31.974Z,8128.00
2022-09-23T07:47:31.901Z,8028.00
2022-09-23T07:48:34.302Z,7932.00
2022-09-23T07:49:31.848Z,7972.00
2022-09-23T07:50:31.840Z,8104.00
2022-09-23T07:51:35.737Z,8152.00
2022-09-23T07:52:31.831Z,8284.00
2022-09-23T07:53:31.828Z,8260.00
2022-09-23T07:54:31.803Z,8304.00
2022-09-23T07:55:31.795Z,8304.00
2022-09-23T07:56:31.795Z,8128.00
2022-09-23T07:57:31.762Z,7828.00
2022-09-23T07:58:31.763Z,7628.00
2022-09-23T07:59:31.743Z,7316.00
2022-09-23T08:00:31.736Z,7088.00
2022-09-23T08:01:31.804Z,7256.00
2022-09-23T08:02:31.767Z,7508.00
2022-09-23T08:03:31.702Z,8040.00
2022-09-23T08:04:31.717Z,8148.00
2022-09-23T08:05:31.699Z,7960.00
2022-09-23T08:06:31.706Z,7932.00
2022-09-23T08:07:31.662Z,7836.00
2022-09-23T08:08:31.650Z,8292.00
2022-09-23T08:09:31.630Z,8824.00
2022-09-23T08:10:31.641Z,8936.00
2022-09-23T08:11:31.618Z,9096.00
2022-09-23T08:12:31.615Z,8972.00
2022-09-23T08:13:31.625Z,8960.00
2022-09-23T08:14:31.580Z,9028.00
2022-09-23T08:15:31.608Z,9060.00
2022-09-23T08:16:31.605Z,9064.00
2022-09-23T08:17:31.573Z,9104.00
2022-09-23T08:18:31.559Z,9160.00
2022-09-23T08:19:31.611Z,9316.00
2022-09-23T08:20:31.531Z,9352.00
2022-09-23T08:21:32.118Z,9472.00
2022-09-23T08:22:31.503Z,9524.00
2022-09-23T08:23:31.485Z,9408.00
2022-09-23T08:24:31.482Z,9584.00
2022-09-23T08:25:34.286Z,9784.00
2022-09-23T08:26:31.463Z,9688.00
2022-09-23T08:27:31.467Z,9532.00
2022-09-23T08:28:31.441Z,9644.00
2022-09-23T08:29:31.431Z,9272.00
2022-09-23T08:30:31.418Z,8596.00
2022-09-23T08:31:31.394Z,9408.00
2022-09-23T08:32:31.404Z,9496.00
2022-09-23T08:33:31.376Z,10236.00
2022-09-23T08:34:31.363Z,10228.00
2022-09-23T08:35:31.379Z,10488.00
2022-09-23T08:36:31.361Z,10456.00
2022-09-23T08:37:31.340Z,10128.00
2022-09-23T08:38:31.321Z,10696.00
2022-09-23T08:39:31.317Z,10268.00
2022-09-23T08:40:31.336Z,10732.00
2022-09-23T08:41:31.297Z,10140.00
2022-09-23T08:42:31.280Z,10128.00
2022-09-23T08:43:31.267Z,9596.00
2022-09-23T08:44:31.264Z,11076.00
2022-09-23T08:45:31.239Z,11048.00
2022-09-23T08:46:31.616Z,11512.00
2022-09-23T08:47:31.453Z,11572.00
2022-09-23T08:48:31.212Z,11464.00
2022-09-23T08:49:31.209Z,11400.00
2022-09-23T08:50:31.291Z,11352.00
2022-09-23T08:51:31.201Z,11948.00
2022-09-23T08:52:31.187Z,12108.00
2022-09-23T08:53:31.168Z,12060.00
2022-09-23T08:54:31.154Z,12044.00
2022-09-23T08:55:31.135Z,11876.00
2022-09-23T08:56:31.150Z,11988.00
2022-09-23T08:57:31.124Z,12008.00
2022-09-23T08:58:31.108Z,12052.00
2022-09-23T08:59:31.120Z,12008.00
2022-09-23T09:00:31.068Z,12004.00
2022-09-23T09:01:31.396Z,12040.00
2022-09-23T09:02:31.079Z,11960.00
2022-09-23T09:03:31.054Z,11904.00
2022-09-23T09:04:31.045Z,12084.00
2022-09-23T09:05:31.033Z,12316.00
2022-09-23T09:06:31.029Z,12288.00
2022-09-23T09:07:38.519Z,12284.00
2022-09-23T09:08:31.992Z,12140.00
2022-09-23T09:09:31.007Z,12212.00
2022-09-23T09:10:30.978Z,12044.00
2022-09-23T09:11:30.979Z,12568.00
2022-09-23T09:12:30.959Z,12684.00
2022-09-23T09:13:30.960Z,12564.00
2022-09-23T09:14:30.946Z,13016.00
2022-09-23T09:15:30.969Z,13152.00
2022-09-23T09:16:55.343Z,13292.00
2022-09-23T09:17:35.035Z,13400.00
2022-09-23T16:25:11.076Z,1064.00
2022-09-23T16:26:09.423Z,1048.00
2022-09-23T16:27:09.656Z,1036.00
2022-09-23T16:28:09.380Z,1020.00
2022-09-23T16:29:09.456Z,1000.00
2022-09-23T16:30:09.373Z,976.00
2022-09-23T16:31:09.360Z,948.00
2022-09-23T16:32:09.380Z,920.00
2022-09-23T16:33:09.341Z,896.00
2022-09-23T16:34:09.326Z,864.00
2022-09-23T16:35:09.341Z,832.00
2022-09-23T16:36:09.302Z,800.00
2022-09-23T16:37:09.312Z,768.00
2022-09-23T16:38:09.262Z,740.00
2022-09-23T16:39:09.242Z,712.00
2022-09-23T16:40:09.343Z,688.00
2022-09-23T16:41:09.347Z,668.00
2022-09-23T16:42:09.252Z,648.00
2022-09-23T16:43:09.243Z,636.00
2022-09-23T16:44:09.216Z,620.00
2022-09-23T16:45:09.241Z,600.00
2022-09-23T16:46:09.298Z,584.00
2022-09-23T16:47:09.193Z,564.00
2022-09-23T16:48:09.162Z,544.00
2022-09-23T16:49:09.164Z,528.00
2022-09-23T16:50:09.138Z,512.00
2022-09-23T16:51:09.117Z,496.00
2022-09-23T16:52:09.113Z,480.00
2022-09-23T16:53:09.179Z,464.00
2022-09-23T16:54:09.131Z,452.00
2022-09-23T16:55:09.217Z,440.00
2022-09-23T16:56:09.173Z,428.00
2022-09-23T16:57:09.079Z,408.00
2022-09-23T16:58:09.046Z,396.00
2022-09-23T16:59:09.143Z,380.00
2022-09-23T17:00:09.032Z,356.00
2022-09-23T17:01:09.130Z,340.00
2022-09-23T17:02:09.055Z,316.00
2022-09-23T17:03:09.010Z,304.00
2022-09-23T17:04:09.031Z,284.00
2022-09-23T17:05:08.969Z,268.00
2022-09-23T17:06:08.974Z,252.00
2022-09-23T17:07:08.965Z,232.00
2022-09-23T17:08:08.936Z,216.00
2022-09-23T17:09:08.942Z,200.00
2022-09-23T17:10:08.919Z,184.00
2022-09-23T17:11:08.904Z,168.00
2022-09-23T17:12:08.896Z,152.00
2022-09-23T17:13:08.892Z,136.00
2022-09-23T17:14:08.913Z,124.00
2022-09-23T17:15:08.848Z,112.00
2022-09-23T17:16:08.904Z,104.00
2022-09-23T17:17:08.842Z,92.00
2022-09-23T17:18:08.837Z,84.00
2022-09-23T17:19:08.878Z,80.00
2022-09-23T17:20:08.796Z,76.00
2022-09-23T17:21:08.795Z,68.00
2022-09-23T17:22:08.776Z,64.00
2022-09-23T17:23:08.764Z,60.00
2022-09-23T17:24:08.774Z,56.00
2022-09-23T17:25:08.786Z,48.00
2022-09-23T17:26:08.726Z,44.00
2022-09-23T17:27:09.004Z,40.00
2022-09-23T17:28:08.712Z,32.00
2022-09-23T17:29:08.695Z,32.00
2022-09-23T17:30:08.709Z,28.00
2022-09-23T17:31:08.849Z,24.00
2022-09-23T17:32:08.710Z,20.00
2022-09-23T17:33:08.661Z,20.00
2022-09-23T17:34:08.704Z,16.00
2022-09-23T17:35:08.621Z,12.00
2022-09-23T17:36:08.627Z,12.00
2022-09-23T17:37:08.641Z,12.00
2022-09-23T17:38:08.972Z,8.00
2022-09-23T17:39:08.661Z,8.00
2022-09-23T17:40:08.658Z,4.00
2022-09-23T17:41:08.563Z,4.00
2022-09-23T17:42:08.589Z,8.00
2022-09-23T17:43:08.555Z,4.00
2022-09-23T17:44:08.547Z,4.00
2022-09-23T17:45:08.649Z,4.00
2022-09-23T17:46:08.633Z,4.00
2022-09-23T17:47:08.556Z,4.00
2022-09-23T17:48:08.502Z,0.00
2022-09-23T17:49:08.636Z,0.00
2022-09-23T17:50:08.470Z,0.00
2022-09-23T17:51:08.464Z,0.00
2022-09-23T17:52:08.460Z,0.00
2022-09-23T17:53:08.440Z,0.00
2022-09-23T17:54:08.448Z,0.00
2022-09-23T17:55:08.436Z,0.00
2022-09-23T17:56:08.430Z,0.00
2022-09-23T17:57:08.634Z,0.00
2022-09-23T17:58:08.438Z,0.00
2022-09-23T17:59:08.379Z,0.00
2022-09-23T18:00:08.424Z,0.00
2022-09-23T18:01:08.410Z,0.00
2022-09-23T18:02:10.548Z,0.00
2022-09-23T18:03:08.346Z,0.00
2022-09-23T18:04:08.345Z,0.00
2022-09-23T18:05:08.320Z,0.00
2022-09-23T18:06:08.305Z,0.00
2022-09-23T18:07:08.303Z,0.00
2022-09-23T18:08:08.283Z,0.00
2022-09-23T18:09:08.350Z,0.00
2022-09-23T18:10:08.266Z,0.00
2022-09-23T18:11:08.251Z,0.00
2022-09-23T18:12:08.253Z,0.00
2022-09-23T18:13:08.219Z,0.00
2022-09-23T18:14:08.225Z,0.00
2022-09-23T18:15:08.211Z,0.00
2022-09-23T18:16:08.387Z,0.00
2022-09-23T18:17:08.200Z,0.00
2022-09-23T18:18:08.172Z,0.00
2022-09-23T18:19:08.222Z,0.00
2022-09-23T18:20:08.147Z,0.00
2022-09-23T18:21:08.159Z,0.00
2022-09-23T18:22:08.125Z,0.00
2022-09-23T18:23:08.333Z,0.00
2022-09-23T18:24:31.412Z,0.00
2022-09-23T18:25:28.497Z,0.00
2022-09-23T18:26:09.097Z,0.00
2022-09-23T18:27:08.085Z,0.00
2022-09-23T18:28:08.058Z,0.00
2022-09-23T18:29:08.445Z,0.00
2022-09-23T18:30:08.052Z,0.00
2022-09-23T18:31:08.083Z,0.00
2022-09-23T18:32:11.080Z,0.00
2022-09-23T18:33:09.009Z,0.00
2022-09-23T18:34:08.317Z,0.00
2022-09-23T18:35:07.980Z,0.00
2022-09-23T18:36:07.973Z,0.00
2022-09-23T18:37:15.284Z,0.00
2022-09-23T18:38:08.932Z,0.00
2022-09-23T18:39:07.965Z,0.00
2022-09-23T18:40:12.523Z,0.00
2022-09-23T18:41:08.927Z,0.00
2022-09-23T18:42:07.919Z,0.00
2022-09-23T18:43:07.912Z,0.00
2022-09-23T18:44:07.921Z,0.00
2022-09-23T18:45:08.335Z,0.00
2022-09-23T18:46:07.938Z,0.00
2022-09-23T18:47:07.869Z,0.00
2022-09-23T18:48:07.874Z,0.00
2022-09-23T18:49:07.863Z,0.00
2022-09-23T18:50:07.818Z,0.00
2022-09-23T18:51:07.783Z,0.00
2022-09-23T18:52:07.776Z,0.00
2022-09-23T18:53:07.840Z,0.00
2022-09-23T18:54:07.830Z,0.00
2022-09-23T18:55:07.744Z,0.00
2022-09-23T18:56:07.733Z,0.00
2022-09-23T18:57:07.845Z,0.00
2022-09-23T18:58:07.744Z,0.00
2022-09-23T18:59:07.852Z,0.00
2022-09-23T19:00:07.796Z,0.00
2022-09-23T19:01:07.809Z,0.00
2022-09-23T19:02:07.893Z,0.00
2022-09-23T19:03:07.695Z,0.00
2022-09-23T19:04:07.736Z,0.00
2022-09-23T19:05:07.657Z,0.00
2022-09-23T19:06:07.667Z,0.00
2022-09-23T19:07:07.655Z,0.00
2022-09-23T19:08:07.635Z,0.00
2022-09-23T19:09:07.611Z,0.00
2022-09-23T19:10:07.616Z,0.00
2022-09-23T19:11:07.609Z,0.00
2022-09-23T19:12:07.570Z,0.00
2022-09-23T19:13:07.582Z,0.00
2022-09-23T19:16:23.084Z,0.00
2022-09-23T19:17:25.755Z,0.00
2022-09-23T19:22:23.901Z,0.00
2022-09-23T19:23:23.085Z,0.00
2022-09-23T19:24:26.524Z,0.00
2022-09-23T19:25:23.315Z,0.00
2022-09-23T19:26:24.992Z,0.00
2022-09-23T19:27:22.989Z,0.00
2022-09-23T19:28:23.676Z,0.00
2022-09-23T19:29:21.927Z,0.00
2022-09-23T19:30:22.345Z,0.00
2022-09-23T19:31:22.158Z,0.00
2022-09-23T19:32:25.450Z,0.00
2022-09-23T19:33:24.894Z,0.00
2022-09-23T19:34:23.502Z,0.00
2022-09-23T19:35:24.094Z,0.00
2022-09-23T19:36:24.114Z,0.00
2022-09-23T19:37:21.580Z,0.00
2022-09-23T19:38:21.510Z,0.00
2022-09-23T19:39:21.468Z,0.00
2022-09-23T19:40:21.551Z,0.00
2022-09-23T19:41:21.400Z,0.00
2022-09-23T19:42:21.379Z,0.00
2022-09-23T19:43:21.375Z,0.00
2022-09-23T19:44:21.534Z,0.00
2022-09-23T19:45:21.422Z,0.00
2022-09-23T19:46:21.619Z,0.00
2022-09-23T19:47:21.562Z,0.00
2022-09-23T19:48:21.296Z,0.00
2022-09-23T19:49:21.283Z,0.00
2022-09-23T19:50:21.389Z,0.00
2022-09-23T19:51:21.265Z,0.00
2022-09-23T19:52:21.235Z,0.00
2022-09-23T19:53:24.807Z,0.00
2022-09-23T19:54:22.228Z,0.00
2022-09-23T19:55:21.213Z,0.00
2022-09-23T19:56:21.175Z,0.00
2022-09-23T19:57:21.261Z,0.00
2022-09-23T19:58:21.166Z,0.00
2022-09-23T19:59:21.202Z,0.00
2022-09-23T20:00:21.323Z,0.00
2022-09-23T20:01:21.315Z,0.00